Cadiz, Kentucky
Current Conditions -  °F | °C
As of 7:58 AM on Saturday 22 Nov 2014 (Local Time) from KHOP Reporting Station
Broken Clouds Broken Clouds  
Wind Chill: 53°   Ceiling: 10000
Heat Index: 53°   Visibility: 10mi
Dew Point: 38°   Wind: 9mph
Humidity: 56%   Direction: 180°S
Pressure: 30.31"   Gusts: NA
Location:  36.87°N, 87.84°W
Report Text: KHOP 221358Z AUTO 18008KT 10SM FEW080 BKN100 12/03 A3031 RMK AO2 DZB1328E1340 SLP267 P0000 T01170032
Loading
Personal Weather Stations






























Interactive Weather Map New forecast layout! Learn more

10-Day Weather Forecast

Advertisements
Track Severe Weather on mobile